map of CIX home
CIX - Airport
Location
City:  Chiclayo, Lambayeque, Perú
Name:Captaán FAP José Abelardo Quiñones Gonzáles International Airport
ICAO:SPHI
IATA:CIX

Details
Type:Airport (Aerodrome, Airfield)
Use:Public/Civil, International (customs port of entry)
Latitude:6°47'15"S (-6.787477)
Longitude:79°49'41"W (-79.828099)
Elevation:91 ft (28 m)
Variation:1.32°W (WMM2015 magnetic declination)
-0.16° annual change
Runways:1
Longest:8202 × 148 ft (2500 × 45 m), paved

Time
Time Zone:UTC-5
Local Time:

Weather
METAR:SPHI 121800Z 19018KT 9999 FEW012 26/17 Q1010 RMK BIRD HAZARD RWY 19/01 PP000
TAF:SPHI 121700Z 1218/1318 18017KT CAVOK TX25/1219Z TN19/1311Z
FM121800 18017KT CAVOK
FM130400 19010KT 9999 SCT020
TEMPO 1308/1312 FEW012 BKN017

Related Locations
Nearby:
Farthest:VTSA: 12444 mi / 20027 km
Satun [Khoun Khan], 91, TH

Find:

   beyond  
but within

Other Information
Maps:
NOTAMs:
Links:
Sources:

  
  • flag of Perú
  • flag of Lambayeque
  

Sectional Chart

Flight Planning
at skyvector.com

Satellite Image

Google Maps Satellite view

 

Copyright © 2004-2018 Karl L. Swartz. All rights reserved.
The Great Circle Mapper name and logo are trademarks of the Great Circle Mapper.
All other trademarks mentioned herein belong to their respective owners.
Please see credits for attibutions and further copyright information.

  Follow gcmap on Facebook Follow gcmap on Twitter Follow gcmap on Google+ GCmap on LinkedIn

hCard Microformat

Geo Microformat